Time;durP1;ratioP1;P1;durP2;ratioP2;P2;SDS_P1;SDS_P2;PMS_P1;PMS_P2;Temp;Humidity;BMP_temperature;BMP_pressure;BME280_temperature;BME280_humidity;BME280_pressure;Samples;Min_cycle;Max_cycle;Signal;HPM_P1;HPM_P2
2022/07/19 00:02:19;;;;;;;5.35;1.80;;;20.90;56.80;;;;;;4876785;29;20049;-69
2022/07/19 00:04:46;;;;;;;7.32;1.55;;;20.80;56.90;;;;;;4888416;29;20074;-69
2022/07/19 00:07:13;;;;;;;4.45;2.17;;;20.70;56.80;;;;;;4880079;29;20052;-70
2022/07/19 00:09:40;;;;;;;4.60;2.10;;;20.70;56.70;;;;;;4893343;29;20044;-70
2022/07/19 00:12:07;;;;;;;3.30;1.60;;;20.70;56.80;;;;;;4884790;29;20064;-70
2022/07/19 00:14:34;;;;;;;3.85;1.90;;;20.70;56.80;;;;;;4888317;29;20503;-69
2022/07/19 00:17:01;;;;;;;5.03;1.90;;;20.60;56.90;;;;;;4861542;29;20438;-69
2022/07/19 00:19:29;;;;;;;7.90;1.60;;;20.60;56.90;;;;;;4884897;29;20566;-69
2022/07/19 00:21:56;;;;;;;3.90;1.60;;;20.60;56.80;;;;;;4888918;29;20053;-68
2022/07/19 00:24:23;;;;;;;2.28;1.20;;;20.60;56.70;;;;;;4886029;29;20070;-67
2022/07/19 00:26:50;;;;;;;8.40;1.88;;;20.60;56.70;;;;;;4884446;29;20045;-67
2022/07/19 00:29:17;;;;;;;6.53;1.77;;;20.60;56.90;;;;;;4879078;29;20049;-68
2022/07/19 00:31:44;;;;;;;4.22;1.80;;;20.60;57.00;;;;;;4883493;29;20495;-67
2022/07/19 00:34:11;;;;;;;3.58;1.38;;;20.60;57.10;;;;;;4885180;29;20056;-68
2022/07/19 00:36:39;;;;;;;3.90;1.50;;;20.50;57.10;;;;;;4883130;29;20052;-67
2022/07/19 00:39:06;;;;;;;4.90;1.65;;;20.50;57.30;;;;;;4887886;29;20472;-67
2022/07/19 00:41:33;;;;;;;2.15;0.93;;;20.40;57.40;;;;;;4883231;29;20067;-66
2022/07/19 00:44:00;;;;;;;4.18;1.38;;;20.40;57.50;;;;;;4886122;29;20422;-68
2022/07/19 00:46:27;;;;;;;3.13;1.35;;;20.40;57.50;;;;;;4884550;29;20138;-69
2022/07/19 00:48:54;;;;;;;4.18;1.10;;;20.30;57.70;;;;;;4882902;29;20076;-68
2022/07/19 00:51:21;;;;;;;2.83;1.08;;;20.30;57.60;;;;;;4882089;29;20055;-66
2022/07/19 00:53:50;;;;;;;3.35;1.08;;;20.20;57.60;;;;;;4882144;29;20060;-65
2022/07/19 00:56:18;;;;;;;2.58;1.23;;;20.20;57.80;;;;;;4888249;29;20049;-68
2022/07/19 00:58:47;;;;;;;3.10;1.23;;;20.10;58.00;;;;;;4892647;29;20158;-67
2022/07/19 01:01:14;;;;;;;2.53;0.90;;;20.10;58.20;;;;;;4881929;29;20049;-67
2022/07/19 01:03:42;;;;;;;2.97;1.17;;;20.10;58.30;;;;;;4879337;29;20045;-68
2022/07/19 01:06:10;;;;;;;3.15;1.02;;;20.00;58.40;;;;;;4889081;29;20060;-68
2022/07/19 01:08:38;;;;;;;6.03;1.27;;;20.00;58.60;;;;;;4868164;29;20049;-65
2022/07/19 01:11:07;;;;;;;4.55;2.03;;;19.90;58.80;;;;;;4886356;29;20186;-66
2022/07/19 01:13:34;;;;;;;5.28;2.05;;;19.90;58.90;;;;;;4886096;29;20383;-66
2022/07/19 01:16:01;;;;;;;3.85;1.67;;;19.90;59.00;;;;;;4890101;29;20057;-68
2022/07/19 01:18:29;;;;;;;5.22;1.52;;;19.80;59.20;;;;;;4890009;29;20049;-68
2022/07/19 01:20:58;;;;;;;5.00;1.55;;;19.80;59.20;;;;;;4892093;29;20067;-67
2022/07/19 01:23:27;;;;;;;7.53;1.83;;;19.70;59.40;;;;;;4885401;29;20056;-68
2022/07/19 01:25:54;;;;;;;2.70;1.40;;;19.70;59.50;;;;;;4890129;29;20044;-67
2022/07/19 01:28:21;;;;;;;3.15;1.40;;;19.60;59.60;;;;;;4886165;29;20051;-68
2022/07/19 01:30:47;;;;;;;6.55;1.73;;;19.60;59.50;;;;;;4891848;29;20071;-67
2022/07/19 01:33:14;;;;;;;4.47;1.67;;;19.60;59.70;;;;;;4901864;29;20140;-66
2022/07/19 01:35:41;;;;;;;5.50;1.38;;;19.50;59.90;;;;;;4891619;29;20140;-68
2022/07/19 01:38:08;;;;;;;4.43;1.52;;;19.50;59.80;;;;;;4887811;29;20040;-67
2022/07/19 01:40:37;;;;;;;3.00;1.30;;;19.50;59.90;;;;;;4887927;29;20056;-68
2022/07/19 01:43:03;;;;;;;3.30;1.33;;;19.50;59.90;;;;;;4885058;29;20048;-67
2022/07/19 01:45:30;;;;;;;6.00;1.75;;;19.40;60.10;;;;;;4897595;29;20131;-69
2022/07/19 01:47:57;;;;;;;5.15;1.30;;;19.30;60.30;;;;;;4886802;29;20636;-68
2022/07/19 01:50:25;;;;;;;4.30;1.90;;;19.30;60.50;;;;;;4894141;29;20128;-67
2022/07/19 01:52:52;;;;;;;4.05;1.70;;;19.30;60.70;;;;;;4895023;29;20131;-66
2022/07/19 01:55:20;;;;;;;3.22;1.35;;;19.20;60.90;;;;;;4886351;29;20501;-67
2022/07/19 01:57:49;;;;;;;5.47;1.90;;;19.10;61.00;;;;;;4892584;29;20049;-68
2022/07/19 02:00:17;;;;;;;2.30;1.20;;;19.10;60.80;;;;;;4891277;29;20108;-67
2022/07/19 02:02:44;;;;;;;3.55;1.80;;;19.20;60.70;;;;;;4900037;29;20127;-67
2022/07/19 02:05:11;;;;;;;3.85;1.30;;;19.20;60.60;;;;;;4892900;29;20059;-68
2022/07/19 02:07:38;;;;;;;4.10;1.92;;;19.20;60.50;;;;;;4891275;29;20099;-68
2022/07/19 02:10:06;;;;;;;3.42;1.33;;;19.10;60.50;;;;;;4887339;29;20843;-68
2022/07/19 02:12:33;;;;;;;6.50;1.80;;;19.10;60.60;;;;;;4887927;29;20117;-67
2022/07/19 02:15:02;;;;;;;3.60;1.42;;;19.00;60.60;;;;;;4893633;29;20067;-69
2022/07/19 02:17:28;;;;;;;5.13;1.40;;;19.00;60.70;;;;;;4889067;29;20052;-67
2022/07/19 02:19:55;;;;;;;3.45;1.60;;;19.00;60.80;;;;;;4885087;29;20080;-67
2022/07/19 02:22:23;;;;;;;2.50;1.60;;;18.90;60.90;;;;;;4882915;29;20052;-66
2022/07/19 02:24:50;;;;;;;3.53;1.38;;;18.90;60.80;;;;;;4896268;29;20100;-69
2022/07/19 02:27:16;;;;;;;2.78;1.35;;;18.90;60.90;;;;;;4885705;29;20051;-69
2022/07/19 02:29:43;;;;;;;3.05;1.38;;;18.90;61.10;;;;;;4884037;29;20061;-68
2022/07/19 02:32:12;;;;;;;3.80;1.70;;;18.80;61.20;;;;;;4886621;29;20065;-67
2022/07/19 02:34:39;;;;;;;3.67;1.40;;;18.80;61.30;;;;;;4886243;29;20211;-68
2022/07/19 02:37:06;;;;;;;4.90;1.25;;;18.70;61.30;;;;;;4889815;29;20201;-68
2022/07/19 02:39:33;;;;;;;3.88;1.25;;;18.70;61.50;;;;;;4873340;29;20408;-68
2022/07/19 02:41:59;;;;;;;3.22;1.23;;;18.70;61.70;;;;;;4874744;29;20855;-67
2022/07/19 02:44:28;;;;;;;3.55;1.25;;;18.60;61.70;;;;;;4894843;29;20135;-68
2022/07/19 02:46:55;;;;;;;5.40;1.20;;;18.60;61.80;;;;;;4890126;29;20124;-68
2022/07/19 02:49:23;;;;;;;2.95;1.40;;;18.60;61.90;;;;;;4897703;29;20511;-67
2022/07/19 02:51:50;;;;;;;4.95;1.55;;;18.60;61.90;;;;;;4894047;29;20432;-68
2022/07/19 02:54:17;;;;;;;2.75;1.48;;;18.60;61.90;;;;;;4884732;29;20194;-67
2022/07/19 02:56:44;;;;;;;5.88;1.90;;;18.60;62.00;;;;;;4886791;29;20057;-66
2022/07/19 02:59:11;;;;;;;4.60;1.33;;;18.50;62.10;;;;;;4890163;29;20044;-66
2022/07/19 03:01:38;;;;;;;4.55;1.40;;;18.50;62.20;;;;;;4877582;29;20055;-68
2022/07/19 03:04:05;;;;;;;4.10;1.42;;;18.40;62.30;;;;;;4874288;29;20076;-67
2022/07/19 03:06:33;;;;;;;2.50;1.30;;;18.40;62.30;;;;;;4883990;29;20073;-66
2022/07/19 03:09:00;;;;;;;5.40;1.65;;;18.40;62.30;;;;;;4889887;29;20056;-67
2022/07/19 03:11:30;;;;;;;3.53;1.20;;;18.40;62.30;;;;;;4880132;29;20088;-66
2022/07/19 03:13:57;;;;;;;4.85;1.40;;;18.40;62.20;;;;;;4875532;29;20056;-68
2022/07/19 03:16:24;;;;;;;3.55;1.25;;;18.40;62.20;;;;;;4871680;29;20126;-68
2022/07/19 03:18:51;;;;;;;5.78;1.73;;;18.40;62.10;;;;;;4883321;29;20052;-67
2022/07/19 03:21:18;;;;;;;2.60;1.17;;;18.30;62.20;;;;;;4886470;29;20053;-67
2022/07/19 03:23:46;;;;;;;4.93;1.30;;;18.30;62.30;;;;;;4878810;29;20144;-67
2022/07/19 03:26:14;;;;;;;3.65;1.50;;;18.20;62.50;;;;;;4895883;29;20519;-67
2022/07/19 03:28:41;;;;;;;3.80;1.38;;;18.20;62.50;;;;;;4871831;29;20049;-66
2022/07/19 03:31:07;;;;;;;4.20;1.50;;;18.20;62.60;;;;;;4890330;29;20074;-66
2022/07/19 03:33:35;;;;;;;3.50;1.40;;;18.10;62.70;;;;;;4886683;29;20063;-66
2022/07/19 03:36:02;;;;;;;3.45;1.23;;;18.10;62.90;;;;;;4879149;29;20136;-66
2022/07/19 03:38:29;;;;;;;4.18;1.30;;;18.10;63.00;;;;;;4882617;29;20779;-68
2022/07/19 03:40:57;;;;;;;3.53;1.50;;;18.10;63.10;;;;;;4891866;29;20045;-67
2022/07/19 03:43:24;;;;;;;3.90;1.88;;;18.00;63.00;;;;;;4879171;29;20067;-68
2022/07/19 03:45:52;;;;;;;3.67;1.65;;;18.00;62.80;;;;;;4892979;29;20083;-67
2022/07/19 03:48:21;;;;;;;6.13;2.05;;;18.00;62.80;;;;;;4899494;29;20057;-68
2022/07/19 03:50:48;;;;;;;11.17;1.57;;;17.90;62.80;;;;;;4897231;29;20079;-68
2022/07/19 03:53:15;;;;;;;4.97;2.20;;;18.00;62.70;;;;;;4890926;29;20132;-67
2022/07/19 03:55:42;;;;;;;5.07;1.98;;;18.00;62.60;;;;;;4888128;29;20126;-69
2022/07/19 03:58:10;;;;;;;4.28;1.90;;;18.10;62.50;;;;;;4894994;29;20495;-69
2022/07/19 04:00:38;;;;;;;4.85;1.60;;;18.10;62.70;;;;;;4894532;29;20051;-68
2022/07/19 04:03:05;;;;;;;4.25;1.95;;;18.00;62.80;;;;;;4884319;29;20051;-67
2022/07/19 04:05:31;;;;;;;2.88;1.30;;;18.00;62.90;;;;;;4886657;29;20052;-69
2022/07/19 04:07:58;;;;;;;4.22;1.80;;;18.00;63.00;;;;;;4890560;29;20045;-68
2022/07/19 04:10:25;;;;;;;3.33;1.70;;;18.00;63.10;;;;;;4887499;29;20414;-68
2022/07/19 04:12:53;;;;;;;4.65;1.67;;;17.90;63.30;;;;;;4879804;29;20502;-67
2022/07/19 04:15:21;;;;;;;4.32;1.48;;;17.90;63.40;;;;;;4886637;29;20052;-69
2022/07/19 04:17:48;;;;;;;4.78;1.40;;;17.90;63.60;;;;;;4887228;29;20475;-69
2022/07/19 04:20:15;;;;;;;3.72;1.85;;;17.80;63.70;;;;;;4889571;29;20068;-69
2022/07/19 04:22:42;;;;;;;6.20;1.55;;;17.80;63.90;;;;;;4887053;29;20403;-69
2022/07/19 04:25:10;;;;;;;4.40;1.20;;;17.70;64.20;;;;;;4888534;29;20049;-68
2022/07/19 04:27:37;;;;;;;4.78;1.63;;;17.70;64.40;;;;;;4894752;29;20542;-68
2022/07/19 04:30:05;;;;;;;6.88;1.70;;;17.70;64.40;;;;;;4871343;29;20048;-67
2022/07/19 04:32:33;;;;;;;3.90;1.50;;;17.80;64.20;;;;;;4892991;29;20052;-68
2022/07/19 04:35:00;;;;;;;4.45;1.63;;;17.70;63.90;;;;;;4879753;29;20051;-67
2022/07/19 04:37:27;;;;;;;6.38;1.70;;;17.80;63.80;;;;;;4878046;29;20049;-68
2022/07/19 04:39:54;;;;;;;3.58;1.42;;;17.90;63.40;;;;;;4888267;29;20503;-68
2022/07/19 04:42:21;;;;;;;3.33;1.48;;;18.00;62.90;;;;;;4887620;29;20052;-68
2022/07/19 04:44:48;;;;;;;4.25;1.77;;;18.00;63.00;;;;;;4879048;29;20577;-69
2022/07/19 04:47:15;;;;;;;3.95;1.00;;;17.90;63.20;;;;;;4884111;29;20045;-68
2022/07/19 04:49:43;;;;;;;3.33;1.60;;;17.90;63.30;;;;;;4884616;29;20116;-67
2022/07/19 04:52:10;;;;;;;2.33;1.73;;;17.90;63.20;;;;;;4887807;29;20483;-67
2022/07/19 04:54:37;;;;;;;2.42;1.13;;;18.00;62.90;;;;;;4887947;29;20096;-68
2022/07/19 04:57:04;;;;;;;7.22;1.60;;;17.90;62.80;;;;;;4886180;29;20052;-67
2022/07/19 04:59:31;;;;;;;4.40;1.48;;;18.00;62.70;;;;;;4889155;29;20104;-66
2022/07/19 05:01:58;;;;;;;2.60;1.30;;;18.10;62.60;;;;;;4886227;29;20064;-67
2022/07/19 05:04:25;;;;;;;7.18;1.58;;;18.10;62.60;;;;;;4885298;29;20052;-68
2022/07/19 05:06:56;;;;;;;4.18;1.48;;;18.10;62.60;;;;;;4888059;29;20069;-68
2022/07/19 05:09:24;;;;;;;5.90;1.80;;;18.10;62.30;;;;;;4893252;29;20048;-69
2022/07/19 05:11:51;;;;;;;4.00;1.60;;;18.10;62.50;;;;;;4882497;29;20041;-67
2022/07/19 05:14:18;;;;;;;5.90;1.80;;;18.10;62.40;;;;;;4886674;29;20048;-68
2022/07/19 05:16:45;;;;;;;4.28;1.70;;;18.20;62.10;;;;;;4886313;29;20057;-68
2022/07/19 05:19:13;;;;;;;8.00;2.40;;;18.20;62.10;;;;;;4877105;29;20053;-68
2022/07/19 05:21:39;;;;;;;2.53;1.25;;;18.30;61.80;;;;;;4891653;29;20123;-67
2022/07/19 05:24:08;;;;;;;4.43;1.60;;;18.30;61.80;;;;;;4888218;29;20487;-66
2022/07/19 05:26:35;;;;;;;4.32;1.33;;;18.30;62.00;;;;;;4892324;29;20052;-68
2022/07/19 05:29:02;;;;;;;4.40;1.70;;;18.30;61.90;;;;;;4880047;29;20320;-68
2022/07/19 05:31:29;;;;;;;6.68;1.40;;;18.30;61.80;;;;;;4886795;29;20057;-68
2022/07/19 05:33:56;;;;;;;4.65;1.48;;;18.40;61.40;;;;;;4887320;29;20052;-67
2022/07/19 05:36:23;;;;;;;4.63;1.30;;;18.40;61.10;;;;;;4884078;29;20064;-68
2022/07/19 05:38:50;;;;;;;4.63;1.60;;;18.50;61.00;;;;;;4882264;29;20052;-67
2022/07/19 05:41:21;;;;;;;4.93;1.80;;;18.50;61.10;;;;;;4886668;29;20052;-67
2022/07/19 05:43:49;;;;;;;4.97;1.52;;;18.50;60.80;;;;;;4883353;29;20048;-68
2022/07/19 05:46:16;;;;;;;3.35;1.52;;;18.60;60.60;;;;;;4875575;29;20188;-67
2022/07/19 05:48:43;;;;;;;6.15;1.52;;;18.60;60.50;;;;;;4893428;29;20135;-67
2022/07/19 05:51:10;;;;;;;4.68;1.27;;;18.60;60.50;;;;;;4883648;29;20512;-67
2022/07/19 05:53:38;;;;;;;3.45;1.23;;;18.60;60.30;;;;;;4880912;29;20061;-67
2022/07/19 05:56:05;;;;;;;3.53;1.23;;;18.60;60.50;;;;;;4881093;29;20048;-67
2022/07/19 05:58:34;;;;;;;2.33;1.00;;;18.70;60.10;;;;;;4882959;29;23610;-67
2022/07/19 06:01:19;;;;;;;4.10;1.55;;;18.80;59.70;;;;;;4878570;29;20065;-68
2022/07/19 06:03:46;;;;;;;3.28;1.40;;;18.70;59.50;;;;;;4881035;29;20053;-67
2022/07/19 06:06:15;;;;;;;4.25;1.65;;;18.80;59.50;;;;;;4884768;29;20420;-66
2022/07/19 06:08:42;;;;;;;3.08;1.20;;;18.80;59.70;;;;;;4895753;29;20511;-67
2022/07/19 06:11:09;;;;;;;6.10;1.58;;;18.90;59.70;;;;;;4880168;29;20063;-67
2022/07/19 06:13:37;;;;;;;4.72;1.70;;;18.90;59.80;;;;;;4879973;29;20085;-67
2022/07/19 06:16:05;;;;;;;5.38;2.13;;;19.00;59.90;;;;;;4882338;29;20048;-67
2022/07/19 06:18:35;;;;;;;2.33;1.40;;;19.00;59.90;;;;;;4881382;29;20055;-67
2022/07/19 06:21:02;;;;;;;2.80;1.30;;;19.10;60.10;;;;;;4886883;29;20112;-66
2022/07/19 06:23:29;;;;;;;3.10;1.35;;;19.10;60.40;;;;;;4880139;29;20055;-67
2022/07/19 06:25:56;;;;;;;3.90;1.30;;;19.20;60.50;;;;;;4881994;29;21632;-68
2022/07/19 06:28:23;;;;;;;1.85;1.00;;;19.20;60.50;;;;;;4882898;29;20525;-68
2022/07/19 06:30:51;;;;;;;2.33;1.20;;;19.30;60.60;;;;;;4890264;29;20141;-67
2022/07/19 06:33:18;;;;;;;4.03;1.63;;;19.40;60.50;;;;;;4886125;29;20143;-68
2022/07/19 06:35:45;;;;;;;3.28;1.40;;;19.50;60.40;;;;;;4881390;29;20717;-68
2022/07/19 06:38:12;;;;;;;5.10;1.40;;;19.60;60.40;;;;;;4878448;29;20108;-66
2022/07/19 06:40:39;;;;;;;3.47;1.15;;;19.70;60.20;;;;;;4883415;29;20059;-66
2022/07/19 06:43:07;;;;;;;2.83;1.13;;;19.70;59.90;;;;;;4885842;29;20056;-67
2022/07/19 06:45:34;;;;;;;4.22;1.25;;;19.90;59.60;;;;;;4886675;29;20064;-68
2022/07/19 06:48:02;;;;;;;4.25;1.55;;;20.10;59.30;;;;;;4876136;29;20470;-68
2022/07/19 06:50:34;;;;;;;4.22;1.20;;;20.20;59.00;;;;;;4873639;29;20049;-68
2022/07/19 06:53:01;;;;;;;4.22;1.40;;;20.40;58.80;;;;;;4887620;29;20049;-69
2022/07/19 06:55:29;;;;;;;6.97;1.65;;;20.60;58.40;;;;;;4885153;29;20462;-68
2022/07/19 06:57:56;;;;;;;3.15;1.30;;;20.70;58.30;;;;;;4886782;29;20064;-68
2022/07/19 07:00:23;;;;;;;5.57;1.40;;;21.00;58.20;;;;;;4879980;29;20520;-67
2022/07/19 07:02:50;;;;;;;4.38;1.83;;;21.10;58.10;;;;;;4893130;29;20104;-68
2022/07/19 07:05:18;;;;;;;7.90;1.85;;;21.30;57.50;;;;;;4893052;29;20487;-68
2022/07/19 07:07:45;;;;;;;7.43;1.88;;;21.50;56.90;;;;;;4879253;29;20164;-70
2022/07/19 07:10:12;;;;;;;2.72;1.00;;;21.70;56.60;;;;;;4885156;29;20225;-68
2022/07/19 07:12:39;;;;;;;4.40;1.58;;;21.80;56.10;;;;;;4883445;29;20065;-68
2022/07/19 07:15:08;;;;;;;3.85;1.70;;;22.10;54.90;;;;;;4890943;29;20068;-68
2022/07/19 07:17:35;;;;;;;3.90;1.60;;;22.40;54.50;;;;;;4892918;29;20072;-68
2022/07/19 07:20:02;;;;;;;3.22;1.40;;;22.60;54.20;;;;;;4893613;29;20064;-68
2022/07/19 07:22:30;;;;;;;1.90;1.00;;;22.90;53.20;;;;;;4883043;29;20061;-69
2022/07/19 07:24:57;;;;;;;2.85;0.98;;;23.10;53.70;;;;;;4892321;29;20048;-68
2022/07/19 07:27:24;;;;;;;4.53;1.48;;;23.30;52.70;;;;;;4899847;29;20080;-67
2022/07/19 07:29:51;;;;;;;4.35;1.13;;;23.50;52.30;;;;;;4891388;29;20103;-69
2022/07/19 07:32:18;;;;;;;2.88;1.00;;;23.70;51.80;;;;;;4892977;29;20060;-67
2022/07/19 07:34:46;;;;;;;3.72;1.30;;;23.90;51.20;;;;;;4894153;29;20049;-68
2022/07/19 07:37:13;;;;;;;3.08;1.00;;;24.10;51.10;;;;;;4888224;29;20044;-69
2022/07/19 07:39:41;;;;;;;3.35;1.00;;;24.30;49.90;;;;;;4888122;29;20056;-70
2022/07/19 07:42:08;;;;;;;3.60;1.10;;;24.50;49.40;;;;;;4897074;29;20498;-69
2022/07/19 07:44:35;;;;;;;3.13;1.30;;;24.60;49.80;;;;;;4894904;29;20049;-69
2022/07/19 07:47:02;;;;;;;3.85;1.35;;;24.80;48.30;;;;;;4886844;29;20139;-69
2022/07/19 07:49:30;;;;;;;4.90;0.80;;;25.00;47.80;;;;;;4884754;29;20080;-69
2022/07/19 07:51:57;;;;;;;1.67;0.88;;;25.10;48.10;;;;;;4890523;29;20576;-69
2022/07/19 07:54:24;;;;;;;3.13;1.20;;;25.30;47.60;;;;;;4890260;29;20135;-69
2022/07/19 07:56:52;;;;;;;3.60;1.40;;;25.40;47.60;;;;;;4893113;29;20049;-69
2022/07/19 07:59:19;;;;;;;2.90;1.00;;;25.50;47.70;;;;;;4895291;29;20060;-68
2022/07/19 08:01:46;;;;;;;2.38;1.00;;;25.60;47.80;;;;;;4883245;29;20065;-69
2022/07/19 08:04:13;;;;;;;1.60;0.77;;;25.70;47.40;;;;;;4890542;29;20526;-67
2022/07/19 08:06:40;;;;;;;3.13;1.15;;;25.80;47.20;;;;;;4883840;29;20097;-68
2022/07/19 08:09:07;;;;;;;2.75;1.08;;;25.90;45.90;;;;;;4886385;29;20048;-67
2022/07/19 08:11:34;;;;;;;2.25;1.00;;;26.10;45.20;;;;;;4879068;29;20060;-67
2022/07/19 08:14:02;;;;;;;2.35;0.90;;;26.20;44.90;;;;;;4885266;29;20075;-68
2022/07/19 08:16:29;;;;;;;3.35;1.27;;;26.30;44.80;;;;;;4890760;29;20055;-67
2022/07/19 08:18:57;;;;;;;2.42;1.40;;;26.50;43.50;;;;;;4886844;29;20052;-68
2022/07/19 08:21:25;;;;;;;3.50;1.20;;;26.80;43.30;;;;;;4882251;29;20084;-67
2022/07/19 08:23:53;;;;;;;3.05;1.17;;;27.00;42.70;;;;;;4883950;29;20045;-67
2022/07/19 08:26:20;;;;;;;2.00;1.08;;;27.10;42.40;;;;;;4882720;29;20422;-68
2022/07/19 08:28:47;;;;;;;1.80;1.00;;;27.20;42.50;;;;;;4884410;29;20076;-68
2022/07/19 08:31:16;;;;;;;3.88;1.00;;;27.30;42.20;;;;;;4893024;29;20037;-68
2022/07/19 08:33:43;;;;;;;3.53;1.55;;;27.30;42.80;;;;;;4883480;29;20059;-68
2022/07/19 08:36:10;;;;;;;2.58;1.20;;;27.50;42.70;;;;;;4876871;29;20048;-68
2022/07/19 08:38:38;;;;;;;1.45;0.90;;;27.60;42.80;;;;;;4884709;29;20049;-67
2022/07/19 08:41:06;;;;;;;1.55;0.98;;;27.60;42.80;;;;;;4887677;29;20048;-68
2022/07/19 08:43:33;;;;;;;2.53;1.13;;;27.70;42.80;;;;;;4888489;29;20068;-68
2022/07/19 08:46:01;;;;;;;2.22;0.90;;;27.90;42.30;;;;;;4881378;29;20481;-67
2022/07/19 08:48:33;;;;;;;3.20;0.98;;;28.00;41.80;;;;;;4901470;29;20474;-67
2022/07/19 08:51:01;;;;;;;1.40;0.70;;;28.10;41.20;;;;;;4890638;29;20084;-69
2022/07/19 08:53:31;;;;;;;4.72;1.50;;;28.20;41.40;;;;;;4888855;29;20060;-68
2022/07/19 08:55:59;;;;;;;2.83;1.50;;;28.30;41.50;;;;;;4886291;29;20052;-68
2022/07/19 08:58:25;;;;;;;3.80;1.50;;;28.50;41.00;;;;;;4888348;29;20514;-68
2022/07/19 09:00:52;;;;;;;4.13;1.60;;;28.60;41.00;;;;;;4888105;29;20048;-67
2022/07/19 09:03:19;;;;;;;4.57;1.70;;;28.80;40.20;;;;;;4886921;29;20083;-67
2022/07/19 09:05:48;;;;;;;3.60;1.48;;;29.00;39.80;;;;;;4886912;29;20061;-69
2022/07/19 09:08:17;;;;;;;4.43;1.88;;;29.00;40.20;;;;;;4888577;29;20052;-68
2022/07/19 09:11:14;;;;;;;4.78;1.98;;;29.00;39.90;;;;;;4884432;29;20392;-67
2022/07/19 09:13:35;;;;;;;5.57;2.53;;;29.10;39.70;;;;;;4886836;29;20052;-68
2022/07/19 09:16:03;;;;;;;5.85;2.50;;;29.10;39.70;;;;;;4891174;29;20500;-67
2022/07/19 09:18:31;;;;;;;4.97;2.17;;;29.20;39.80;;;;;;4889453;29;20080;-67
2022/07/19 09:21:01;;;;;;;4.75;2.28;;;29.20;39.70;;;;;;4893347;29;20048;-68
2022/07/19 09:23:28;;;;;;;6.65;2.90;;;29.30;39.70;;;;;;4882181;29;20051;-68
2022/07/19 09:25:57;;;;;;;5.82;2.60;;;29.40;39.10;;;;;;4881715;29;20045;-69
2022/07/19 09:28:26;;;;;;;4.97;2.50;;;29.60;38.90;;;;;;4880123;29;20074;-67
2022/07/19 09:30:56;;;;;;;5.50;2.40;;;29.60;38.40;;;;;;4884409;29;20053;-67
2022/07/19 09:33:24;;;;;;;5.57;2.50;;;29.60;38.30;;;;;;4887129;29;20131;-68
2022/07/19 09:35:53;;;;;;;5.32;2.35;;;29.80;38.10;;;;;;4888147;29;20060;-68
2022/07/19 09:38:24;;;;;;;4.20;1.75;;;29.90;37.90;;;;;;4883742;29;20579;-68
2022/07/19 09:40:54;;;;;;;3.80;1.80;;;30.00;37.00;;;;;;4882837;29;20063;-68
2022/07/19 09:43:25;;;;;;;3.75;1.67;;;30.30;35.90;;;;;;4888809;29;20048;-69
2022/07/19 09:45:52;;;;;;;3.38;1.42;;;30.50;35.70;;;;;;4885691;29;20071;-67
2022/07/19 09:48:20;;;;;;;3.25;1.40;;;30.50;36.00;;;;;;4885847;29;20044;-68
2022/07/19 09:50:49;;;;;;;4.78;1.52;;;30.60;36.20;;;;;;4881155;29;20047;-69
2022/07/19 09:53:16;;;;;;;3.58;1.58;;;30.70;35.60;;;;;;4885312;29;20112;-67
2022/07/19 09:55:46;;;;;;;4.30;1.58;;;30.90;35.10;;;;;;4881410;29;20056;-68
2022/07/19 09:58:14;;;;;;;4.32;1.48;;;31.00;35.30;;;;;;4896939;29;20044;-68
2022/07/19 10:00:42;;;;;;;2.13;1.13;;;31.10;34.50;;;;;;4891116;29;20386;-67
2022/07/19 10:03:11;;;;;;;3.50;1.48;;;31.20;35.00;;;;;;4883900;29;20484;-67
2022/07/19 10:05:39;;;;;;;3.85;1.00;;;31.30;33.70;;;;;;4892582;29;20040;-68
2022/07/19 10:08:06;;;;;;;1.88;1.10;;;31.50;32.70;;;;;;4873777;29;20053;-68
2022/07/19 10:10:34;;;;;;;4.20;1.45;;;31.60;33.40;;;;;;4880051;29;20124;-67
2022/07/19 10:13:04;;;;;;;4.32;1.40;;;31.60;33.70;;;;;;4883078;29;20047;-67
2022/07/19 10:15:37;;;;;;;3.85;2.45;;;31.40;34.00;;;;;;4885046;29;20136;-68
2022/07/19 10:18:11;;;;;;;3.90;2.30;;;31.40;34.00;;;;;;4884959;29;20048;-67
2022/07/19 10:20:39;;;;;;;3.67;1.70;;;31.50;34.00;;;;;;4889786;29;20055;-67
2022/07/19 10:23:06;;;;;;;3.55;1.90;;;31.50;34.00;;;;;;4879167;29;20060;-68
2022/07/19 10:25:44;;;;;;;4.93;2.15;;;31.50;34.00;;;;;;4892612;29;20068;-68
2022/07/19 10:28:28;;;;;;;5.35;2.45;;;31.50;33.70;;;;;;4889656;29;20045;-68
2022/07/19 10:30:56;;;;;;;4.53;1.83;;;31.60;32.70;;;;;;4882766;29;20059;-68
2022/07/19 10:33:32;;;;;;;4.68;2.40;;;31.60;33.30;;;;;;4891486;29;20074;-68
2022/07/19 10:36:19;;;;;;;5.50;2.95;;;31.70;33.40;;;;;;4880271;29;20080;-69
2022/07/19 10:39:20;;;;;;;7.95;4.60;;;31.70;33.10;;;;;;4881281;29;20045;-68
2022/07/19 10:42:05;;;;;;;9.45;4.50;;;31.80;32.80;;;;;;4882707;29;20052;-68
2022/07/19 10:44:34;;;;;;;6.45;3.38;;;32.00;32.30;;;;;;4879950;29;20041;-68
2022/07/19 10:47:02;;;;;;;5.82;3.03;;;32.10;32.20;;;;;;4884685;29;20502;-66
2022/07/19 10:49:45;;;;;;;7.10;3.40;;;32.30;31.90;;;;;;4895333;29;20041;-69
2022/07/19 10:52:43;;;;;;;7.68;3.58;;;32.40;32.30;;;;;;4881224;29;20048;-68
2022/07/19 10:55:27;;;;;;;6.45;2.97;;;32.30;32.30;;;;;;4839205;29;20080;-69
2022/07/19 10:58:09;;;;;;;4.85;2.30;;;32.30;32.30;;;;;;4883595;29;20257;-69
2022/07/19 11:00:44;;;;;;;6.00;2.63;;;32.40;30.70;;;;;;4894486;29;20052;-68
2022/07/19 11:03:29;;;;;;;7.00;2.65;;;32.50;31.70;;;;;;4891392;29;20052;-69
2022/07/19 11:05:58;;;;;;;4.13;2.17;;;32.60;31.70;;;;;;4893468;29;20717;-68
2022/07/19 11:08:36;;;;;;;4.15;2.05;;;32.60;31.30;;;;;;4881464;29;20051;-67
2022/07/19 11:11:05;;;;;;;4.68;2.00;;;32.70;31.30;;;;;;4888215;29;20053;-68
2022/07/19 11:13:32;;;;;;;4.50;2.10;;;32.90;30.40;;;;;;4877038;29;20062;-69
2022/07/19 11:16:00;;;;;;;3.90;1.15;;;33.00;31.30;;;;;;4888418;29;20516;-67
2022/07/19 11:18:27;;;;;;;;;;;33.10;30.10;;;;;;4889595;29;20184;-68
2022/07/19 11:20:58;;;;;;;4.40;1.88;;;33.10;29.70;;;;;;4884135;29;20354;-66
2022/07/19 11:23:28;;;;;;;4.20;1.90;;;33.10;30.10;;;;;;4890717;29;20045;-66
2022/07/19 11:26:07;;;;;;;5.65;1.90;;;33.20;30.30;;;;;;4888121;29;20049;-69
2022/07/19 11:28:34;;;;;;;;;;;33.30;30.40;;;;;;4886919;29;20108;-69
2022/07/19 11:31:12;;;;;;;4.72;2.13;;;33.30;30.70;;;;;;4889424;29;19938;-68
2022/07/19 11:33:38;;;;;;;3.92;1.75;;;33.20;30.80;;;;;;4878193;29;20044;-68
2022/07/19 11:36:06;;;;;;;4.43;1.67;;;32.90;30.40;;;;;;4887095;29;20056;-68
2022/07/19 11:38:39;;;;;;;5.38;2.42;;;32.70;30.80;;;;;;4886478;29;20135;-67
2022/07/19 11:41:12;;;;;;;3.70;1.80;;;32.80;30.70;;;;;;4881024;29;20071;-68
2022/07/19 11:43:39;;;;;;;3.00;1.58;;;32.80;29.90;;;;;;4896070;29;20048;-66
2022/07/19 11:46:07;;;;;;;4.72;2.08;;;33.00;29.90;;;;;;4886284;29;20051;-68
2022/07/19 11:48:34;;;;;;;;;;;33.00;30.10;;;;;;4886403;29;20117;-68
2022/07/19 11:51:03;;;;;;;5.28;2.05;;;33.00;29.90;;;;;;4881908;29;19931;-68
2022/07/19 11:53:31;;;;;;;5.00;1.38;;;33.10;29.90;;;;;;4882305;29;20058;-68
2022/07/19 11:55:58;;;;;;;3.00;1.42;;;33.10;29.50;;;;;;4883994;29;20057;-69
2022/07/19 11:58:25;;;;;;;4.28;1.80;;;33.00;29.40;;;;;;4883271;29;20059;-67
2022/07/19 12:00:53;;;;;;;3.03;1.42;;;33.00;29.80;;;;;;4884178;29;20526;-68
2022/07/19 12:03:21;;;;;;;3.67;1.73;;;32.80;29.50;;;;;;4899701;29;20079;-68
2022/07/19 12:05:56;;;;;;;3.75;2.03;;;32.70;30.00;;;;;;4882662;29;20052;-68
2022/07/19 12:08:36;;;;;;;4.90;1.67;;;32.80;29.70;;;;;;4898287;29;20096;-69
2022/07/19 12:11:20;;;;;;;3.50;1.83;;;32.90;29.80;;;;;;4888446;29;20250;-67
2022/07/19 12:13:47;;;;;;;5.43;1.77;;;33.10;28.80;;;;;;4897550;29;20087;-68
2022/07/19 12:16:15;;;;;;;3.77;1.77;;;33.30;28.00;;;;;;4894264;29;20037;-69
2022/07/19 12:18:49;;;;;;;4.68;1.40;;;33.30;28.60;;;;;;4882504;29;20063;-67
2022/07/19 12:21:22;;;;;;;5.45;1.60;;;33.20;29.30;;;;;;4891743;29;20049;-67
2022/07/19 12:24:15;;;;;;;4.13;1.30;;;33.20;28.90;;;;;;4891384;29;20061;-68
2022/07/19 12:26:43;;;;;;;4.18;1.42;;;33.30;29.00;;;;;;4895947;29;20052;-69
2022/07/19 12:29:21;;;;;;;3.22;1.55;;;33.10;29.70;;;;;;4903929;29;20040;-68
2022/07/19 12:31:49;;;;;;;2.90;1.38;;;32.90;29.10;;;;;;4890529;29;20059;-69
2022/07/19 12:34:19;;;;;;;2.15;1.30;;;32.80;29.70;;;;;;4891681;29;20052;-68
2022/07/19 12:36:46;;;;;;;7.10;2.17;;;33.00;28.90;;;;;;4892521;29;20049;-69
2022/07/19 12:39:22;;;;;;;2.95;1.35;;;33.10;29.30;;;;;;4899809;29;20074;-68
2022/07/19 12:42:05;;;;;;;3.55;1.83;;;32.90;29.40;;;;;;4900209;29;20529;-68
2022/07/19 12:44:34;;;;;;;6.45;2.28;;;32.70;29.40;;;;;;4889788;29;20056;-68
2022/07/19 12:47:02;;;;;;;3.97;2.00;;;32.80;29.80;;;;;;4893408;29;20115;-67
2022/07/19 12:49:43;;;;;;;8.73;3.45;;;32.80;29.40;;;;;;4893208;29;20059;-68
2022/07/19 12:52:10;;;;;;;10.73;3.50;;;32.80;30.20;;;;;;4890899;29;20059;-68
2022/07/19 12:54:38;;;;;;;7.28;2.85;;;32.70;29.90;;;;;;4892376;29;20049;-68
2022/07/19 12:57:05;;;;;;;6.70;3.05;;;32.80;29.10;;;;;;4893169;29;20052;-69